sensor_id;sensor_type;location;lat;lon;timestamp;P1;durP1;ratioP1;P2;durP2;ratioP2
68188;SDS011;66299;47.514;19.218;2023-07-24T00:01:58;10.75;;;5.05;;
68188;SDS011;66299;47.514;19.218;2023-07-24T00:04:28;11.35;;;5.38;;
68188;SDS011;66299;47.514;19.218;2023-07-24T00:06:57;11.65;;;4.90;;
68188;SDS011;66299;47.514;19.218;2023-07-24T00:09:29;14.00;;;5.03;;
68188;SDS011;66299;47.514;19.218;2023-07-24T00:12:00;12.27;;;5.45;;
68188;SDS011;66299;47.514;19.218;2023-07-24T00:14:30;11.60;;;5.30;;
68188;SDS011;66299;47.514;19.218;2023-07-24T00:17:01;12.85;;;5.43;;
68188;SDS011;66299;47.514;19.218;2023-07-24T00:19:31;11.00;;;5.00;;
68188;SDS011;66299;47.514;19.218;2023-07-24T00:22:00;12.30;;;5.53;;
68188;SDS011;66299;47.514;19.218;2023-07-24T00:24:30;14.38;;;5.18;;
68188;SDS011;66299;47.514;19.218;2023-07-24T00:27:00;12.07;;;6.13;;
68188;SDS011;66299;47.514;19.218;2023-07-24T00:29:32;14.10;;;5.28;;
68188;SDS011;66299;47.514;19.218;2023-07-24T00:32:01;12.13;;;5.28;;
68188;SDS011;66299;47.514;19.218;2023-07-24T00:34:32;11.40;;;5.57;;
68188;SDS011;66299;47.514;19.218;2023-07-24T00:37:00;13.98;;;5.70;;
68188;SDS011;66299;47.514;19.218;2023-07-24T00:39:29;11.75;;;5.50;;
68188;SDS011;66299;47.514;19.218;2023-07-24T00:41:57;13.32;;;5.20;;
68188;SDS011;66299;47.514;19.218;2023-07-24T00:44:28;11.73;;;5.60;;
68188;SDS011;66299;47.514;19.218;2023-07-24T00:47:01;12.60;;;5.30;;
68188;SDS011;66299;47.514;19.218;2023-07-24T00:49:32;13.43;;;5.68;;
68188;SDS011;66299;47.514;19.218;2023-07-24T00:52:01;12.35;;;5.53;;
68188;SDS011;66299;47.514;19.218;2023-07-24T00:54:30;13.18;;;5.90;;
68188;SDS011;66299;47.514;19.218;2023-07-24T00:57:01;14.52;;;5.90;;
68188;SDS011;66299;47.514;19.218;2023-07-24T00:59:31;12.45;;;5.85;;
68188;SDS011;66299;47.514;19.218;2023-07-24T01:02:00;12.32;;;5.75;;
68188;SDS011;66299;47.514;19.218;2023-07-24T01:04:29;12.80;;;5.85;;
68188;SDS011;66299;47.514;19.218;2023-07-24T01:06:59;12.80;;;5.82;;
68188;SDS011;66299;47.514;19.218;2023-07-24T01:09:29;11.43;;;5.78;;
68188;SDS011;66299;47.514;19.218;2023-07-24T01:12:01;13.55;;;5.95;;
68188;SDS011;66299;47.514;19.218;2023-07-24T01:14:41;12.23;;;6.03;;
68188;SDS011;66299;47.514;19.218;2023-07-24T01:17:16;12.10;;;6.15;;
68188;SDS011;66299;47.514;19.218;2023-07-24T01:19:54;12.73;;;5.97;;
68188;SDS011;66299;47.514;19.218;2023-07-24T01:22:31;12.43;;;5.93;;
68188;SDS011;66299;47.514;19.218;2023-07-24T01:25:09;12.75;;;5.78;;
68188;SDS011;66299;47.514;19.218;2023-07-24T01:27:44;13.85;;;5.65;;
68188;SDS011;66299;47.514;19.218;2023-07-24T01:30:16;12.38;;;5.95;;
68188;SDS011;66299;47.514;19.218;2023-07-24T01:32:48;11.68;;;5.55;;
68188;SDS011;66299;47.514;19.218;2023-07-24T01:35:17;12.40;;;5.97;;
68188;SDS011;66299;47.514;19.218;2023-07-24T01:37:47;11.90;;;5.75;;
68188;SDS011;66299;47.514;19.218;2023-07-24T01:40:17;14.20;;;5.53;;
68188;SDS011;66299;47.514;19.218;2023-07-24T01:42:51;12.68;;;6.07;;
68188;SDS011;66299;47.514;19.218;2023-07-24T01:45:20;11.87;;;5.73;;
68188;SDS011;66299;47.514;19.218;2023-07-24T01:47:52;14.27;;;6.22;;
68188;SDS011;66299;47.514;19.218;2023-07-24T01:50:20;11.27;;;5.60;;
68188;SDS011;66299;47.514;19.218;2023-07-24T01:52:50;11.13;;;6.00;;
68188;SDS011;66299;47.514;19.218;2023-07-24T01:55:18;12.30;;;5.90;;
68188;SDS011;66299;47.514;19.218;2023-07-24T01:57:48;12.43;;;5.88;;
68188;SDS011;66299;47.514;19.218;2023-07-24T02:00:19;12.23;;;5.97;;
68188;SDS011;66299;47.514;19.218;2023-07-24T02:02:50;14.35;;;6.20;;
68188;SDS011;66299;47.514;19.218;2023-07-24T02:05:19;12.98;;;6.22;;
68188;SDS011;66299;47.514;19.218;2023-07-24T02:07:49;13.95;;;6.35;;
68188;SDS011;66299;47.514;19.218;2023-07-24T02:10:18;12.73;;;6.10;;
68188;SDS011;66299;47.514;19.218;2023-07-24T02:12:47;13.73;;;6.30;;
68188;SDS011;66299;47.514;19.218;2023-07-24T02:15:15;11.70;;;6.22;;
68188;SDS011;66299;47.514;19.218;2023-07-24T02:17:46;11.68;;;6.03;;
68188;SDS011;66299;47.514;19.218;2023-07-24T02:20:15;15.07;;;5.87;;
68188;SDS011;66299;47.514;19.218;2023-07-24T02:22:48;16.13;;;6.20;;
68188;SDS011;66299;47.514;19.218;2023-07-24T02:25:18;13.13;;;6.07;;
68188;SDS011;66299;47.514;19.218;2023-07-24T02:27:47;11.38;;;5.97;;
68188;SDS011;66299;47.514;19.218;2023-07-24T02:30:20;11.20;;;5.82;;
68188;SDS011;66299;47.514;19.218;2023-07-24T02:32:54;12.48;;;5.97;;
68188;SDS011;66299;47.514;19.218;2023-07-24T02:35:25;12.07;;;5.90;;
68188;SDS011;66299;47.514;19.218;2023-07-24T02:37:54;12.05;;;5.75;;
68188;SDS011;66299;47.514;19.218;2023-07-24T02:40:22;11.40;;;5.78;;
68188;SDS011;66299;47.514;19.218;2023-07-24T02:42:53;13.43;;;5.80;;
68188;SDS011;66299;47.514;19.218;2023-07-24T02:45:25;11.07;;;5.90;;
68188;SDS011;66299;47.514;19.218;2023-07-24T02:47:54;11.38;;;6.10;;
68188;SDS011;66299;47.514;19.218;2023-07-24T02:50:23;14.98;;;6.13;;
68188;SDS011;66299;47.514;19.218;2023-07-24T02:52:51;13.43;;;6.15;;
68188;SDS011;66299;47.514;19.218;2023-07-24T02:55:20;13.52;;;6.43;;
68188;SDS011;66299;47.514;19.218;2023-07-24T02:57:51;13.85;;;6.70;;
68188;SDS011;66299;47.514;19.218;2023-07-24T03:00:23;13.93;;;6.40;;
68188;SDS011;66299;47.514;19.218;2023-07-24T03:02:52;12.77;;;6.43;;
68188;SDS011;66299;47.514;19.218;2023-07-24T03:05:23;14.98;;;6.63;;
68188;SDS011;66299;47.514;19.218;2023-07-24T03:07:53;12.80;;;6.78;;
68188;SDS011;66299;47.514;19.218;2023-07-24T03:10:23;14.13;;;6.50;;
68188;SDS011;66299;47.514;19.218;2023-07-24T03:12:52;14.13;;;6.32;;
68188;SDS011;66299;47.514;19.218;2023-07-24T03:15:20;13.10;;;6.60;;
68188;SDS011;66299;47.514;19.218;2023-07-24T03:17:49;12.32;;;6.18;;
68188;SDS011;66299;47.514;19.218;2023-07-24T03:20:18;13.50;;;6.72;;
68188;SDS011;66299;47.514;19.218;2023-07-24T03:22:49;13.57;;;6.38;;
68188;SDS011;66299;47.514;19.218;2023-07-24T03:25:19;13.88;;;6.80;;
68188;SDS011;66299;47.514;19.218;2023-07-24T03:27:48;12.15;;;5.93;;
68188;SDS011;66299;47.514;19.218;2023-07-24T03:30:16;12.68;;;6.65;;
68188;SDS011;66299;47.514;19.218;2023-07-24T03:32:47;14.82;;;6.47;;
68188;SDS011;66299;47.514;19.218;2023-07-24T03:35:20;12.30;;;6.45;;
68188;SDS011;66299;47.514;19.218;2023-07-24T03:37:54;13.25;;;6.30;;
68188;SDS011;66299;47.514;19.218;2023-07-24T03:40:27;13.18;;;6.15;;
68188;SDS011;66299;47.514;19.218;2023-07-24T03:42:56;14.15;;;6.60;;
68188;SDS011;66299;47.514;19.218;2023-07-24T03:45:25;12.93;;;7.00;;
68188;SDS011;66299;47.514;19.218;2023-07-24T03:47:55;13.00;;;7.10;;
68188;SDS011;66299;47.514;19.218;2023-07-24T03:50:24;12.63;;;6.95;;
68188;SDS011;66299;47.514;19.218;2023-07-24T03:52:54;14.25;;;7.05;;
68188;SDS011;66299;47.514;19.218;2023-07-24T03:55:24;14.25;;;7.38;;
68188;SDS011;66299;47.514;19.218;2023-07-24T03:57:53;13.40;;;7.85;;
68188;SDS011;66299;47.514;19.218;2023-07-24T04:00:22;16.10;;;7.50;;
68188;SDS011;66299;47.514;19.218;2023-07-24T04:02:52;14.50;;;7.13;;
68188;SDS011;66299;47.514;19.218;2023-07-24T04:05:21;12.45;;;6.63;;
68188;SDS011;66299;47.514;19.218;2023-07-24T04:07:50;13.82;;;7.20;;
68188;SDS011;66299;47.514;19.218;2023-07-24T04:10:21;16.63;;;7.95;;
68188;SDS011;66299;47.514;19.218;2023-07-24T04:12:53;14.02;;;7.65;;
68188;SDS011;66299;47.514;19.218;2023-07-24T04:15:22;13.80;;;7.38;;
68188;SDS011;66299;47.514;19.218;2023-07-24T04:17:50;15.45;;;8.40;;
68188;SDS011;66299;47.514;19.218;2023-07-24T04:20:19;14.32;;;7.63;;
68188;SDS011;66299;47.514;19.218;2023-07-24T04:22:47;14.70;;;7.63;;
68188;SDS011;66299;47.514;19.218;2023-07-24T04:25:17;15.88;;;8.50;;
68188;SDS011;66299;47.514;19.218;2023-07-24T04:27:48;14.30;;;8.32;;
68188;SDS011;66299;47.514;19.218;2023-07-24T04:30:18;16.90;;;8.20;;
68188;SDS011;66299;47.514;19.218;2023-07-24T04:32:47;17.98;;;9.10;;
68188;SDS011;66299;47.514;19.218;2023-07-24T04:35:16;17.67;;;9.20;;
68188;SDS011;66299;47.514;19.218;2023-07-24T04:37:45;19.88;;;9.60;;
68188;SDS011;66299;47.514;19.218;2023-07-24T04:40:14;16.08;;;9.10;;
68188;SDS011;66299;47.514;19.218;2023-07-24T04:42:42;15.57;;;8.93;;
68188;SDS011;66299;47.514;19.218;2023-07-24T04:45:13;16.88;;;9.55;;
68188;SDS011;66299;47.514;19.218;2023-07-24T04:47:41;19.83;;;9.45;;
68188;SDS011;66299;47.514;19.218;2023-07-24T04:50:10;17.48;;;9.30;;
68188;SDS011;66299;47.514;19.218;2023-07-24T04:52:40;14.60;;;9.20;;
68188;SDS011;66299;47.514;19.218;2023-07-24T04:55:08;17.23;;;9.55;;
68188;SDS011;66299;47.514;19.218;2023-07-24T04:57:37;19.33;;;9.65;;
68188;SDS011;66299;47.514;19.218;2023-07-24T05:00:08;17.23;;;9.68;;
68188;SDS011;66299;47.514;19.218;2023-07-24T05:02:40;21.17;;;9.45;;
68188;SDS011;66299;47.514;19.218;2023-07-24T05:05:11;14.85;;;9.20;;
68188;SDS011;66299;47.514;19.218;2023-07-24T05:07:39;23.17;;;9.63;;
68188;SDS011;66299;47.514;19.218;2023-07-24T05:10:08;18.35;;;9.80;;
68188;SDS011;66299;47.514;19.218;2023-07-24T05:12:36;18.98;;;9.07;;
68188;SDS011;66299;47.514;19.218;2023-07-24T05:15:06;17.90;;;9.68;;
68188;SDS011;66299;47.514;19.218;2023-07-24T05:17:36;16.88;;;9.55;;
68188;SDS011;66299;47.514;19.218;2023-07-24T05:20:07;17.85;;;9.63;;
68188;SDS011;66299;47.514;19.218;2023-07-24T05:22:36;17.45;;;9.88;;
68188;SDS011;66299;47.514;19.218;2023-07-24T05:25:06;16.02;;;9.50;;
68188;SDS011;66299;47.514;19.218;2023-07-24T05:27:36;17.17;;;8.90;;
68188;SDS011;66299;47.514;19.218;2023-07-24T05:30:11;16.10;;;9.80;;
68188;SDS011;66299;47.514;19.218;2023-07-24T05:32:41;16.33;;;9.73;;
68188;SDS011;66299;47.514;19.218;2023-07-24T05:35:11;18.23;;;9.98;;
68188;SDS011;66299;47.514;19.218;2023-07-24T05:37:39;15.80;;;9.65;;
68188;SDS011;66299;47.514;19.218;2023-07-24T05:40:11;21.23;;;10.15;;
68188;SDS011;66299;47.514;19.218;2023-07-24T05:42:41;19.45;;;9.73;;
68188;SDS011;66299;47.514;19.218;2023-07-24T05:45:10;17.75;;;9.32;;
68188;SDS011;66299;47.514;19.218;2023-07-24T05:47:39;18.95;;;9.70;;
68188;SDS011;66299;47.514;19.218;2023-07-24T05:50:08;19.58;;;9.90;;
68188;SDS011;66299;47.514;19.218;2023-07-24T05:52:38;16.45;;;9.65;;
68188;SDS011;66299;47.514;19.218;2023-07-24T05:55:10;16.00;;;9.98;;
68188;SDS011;66299;47.514;19.218;2023-07-24T05:57:40;16.77;;;9.95;;
68188;SDS011;66299;47.514;19.218;2023-07-24T06:00:08;15.77;;;9.68;;
68188;SDS011;66299;47.514;19.218;2023-07-24T06:02:37;18.52;;;9.60;;
68188;SDS011;66299;47.514;19.218;2023-07-24T06:05:10;16.35;;;9.10;;
68188;SDS011;66299;47.514;19.218;2023-07-24T06:07:41;16.75;;;9.40;;
68188;SDS011;66299;47.514;19.218;2023-07-24T06:10:10;18.55;;;9.63;;
68188;SDS011;66299;47.514;19.218;2023-07-24T06:12:39;15.45;;;9.00;;
68188;SDS011;66299;47.514;19.218;2023-07-24T06:15:11;14.60;;;8.80;;
68188;SDS011;66299;47.514;19.218;2023-07-24T06:17:41;17.65;;;8.93;;
68188;SDS011;66299;47.514;19.218;2023-07-24T06:20:10;15.73;;;8.35;;
68188;SDS011;66299;47.514;19.218;2023-07-24T06:22:38;15.20;;;7.97;;
68188;SDS011;66299;47.514;19.218;2023-07-24T06:25:10;15.43;;;8.30;;
68188;SDS011;66299;47.514;19.218;2023-07-24T06:27:42;19.45;;;8.02;;
68188;SDS011;66299;47.514;19.218;2023-07-24T06:30:10;15.32;;;8.00;;
68188;SDS011;66299;47.514;19.218;2023-07-24T06:35:11;14.18;;;7.50;;
68188;SDS011;66299;47.514;19.218;2023-07-24T06:37:42;14.27;;;7.28;;
68188;SDS011;66299;47.514;19.218;2023-07-24T06:40:14;20.00;;;7.93;;
68188;SDS011;66299;47.514;19.218;2023-07-24T06:42:43;14.02;;;7.35;;
68188;SDS011;66299;47.514;19.218;2023-07-24T06:45:13;14.48;;;7.07;;
68188;SDS011;66299;47.514;19.218;2023-07-24T06:47:43;14.73;;;7.10;;
68188;SDS011;66299;47.514;19.218;2023-07-24T06:50:12;15.90;;;7.63;;
68188;SDS011;66299;47.514;19.218;2023-07-24T06:52:46;16.30;;;7.43;;
68188;SDS011;66299;47.514;19.218;2023-07-24T06:55:20;16.02;;;7.20;;
68188;SDS011;66299;47.514;19.218;2023-07-24T06:57:52;13.25;;;7.25;;
68188;SDS011;66299;47.514;19.218;2023-07-24T07:00:21;14.68;;;7.18;;
68188;SDS011;66299;47.514;19.218;2023-07-24T07:02:50;14.48;;;7.10;;
68188;SDS011;66299;47.514;19.218;2023-07-24T07:05:25;15.38;;;6.97;;
68188;SDS011;66299;47.514;19.218;2023-07-24T07:08:01;17.17;;;7.00;;
68188;SDS011;66299;47.514;19.218;2023-07-24T07:10:33;13.68;;;7.00;;
68188;SDS011;66299;47.514;19.218;2023-07-24T07:13:05;14.23;;;7.47;;
68188;SDS011;66299;47.514;19.218;2023-07-24T07:15:33;17.70;;;7.13;;
68188;SDS011;66299;47.514;19.218;2023-07-24T07:20:36;15.95;;;6.82;;
68188;SDS011;66299;47.514;19.218;2023-07-24T07:23:09;12.75;;;6.50;;
68188;SDS011;66299;47.514;19.218;2023-07-24T07:25:44;16.52;;;7.20;;
68188;SDS011;66299;47.514;19.218;2023-07-24T07:28:17;12.35;;;6.78;;
68188;SDS011;66299;47.514;19.218;2023-07-24T07:30:48;18.10;;;7.33;;
68188;SDS011;66299;47.514;19.218;2023-07-24T07:33:16;15.57;;;7.07;;
68188;SDS011;66299;47.514;19.218;2023-07-24T07:35:49;13.07;;;6.65;;
68188;SDS011;66299;47.514;19.218;2023-07-24T07:38:27;15.25;;;6.28;;
68188;SDS011;66299;47.514;19.218;2023-07-24T07:43:28;16.83;;;7.28;;
68188;SDS011;66299;47.514;19.218;2023-07-24T07:45:56;22.15;;;7.28;;
68188;SDS011;66299;47.514;19.218;2023-07-24T07:48:26;16.88;;;7.07;;
68188;SDS011;66299;47.514;19.218;2023-07-24T07:50:58;15.15;;;7.07;;
68188;SDS011;66299;47.514;19.218;2023-07-24T07:53:36;14.85;;;7.07;;
68188;SDS011;66299;47.514;19.218;2023-07-24T07:56:05;21.65;;;7.22;;
68188;SDS011;66299;47.514;19.218;2023-07-24T07:58:35;18.20;;;6.80;;
68188;SDS011;66299;47.514;19.218;2023-07-24T08:01:06;16.63;;;7.28;;
68188;SDS011;66299;47.514;19.218;2023-07-24T08:03:36;18.33;;;7.70;;
68188;SDS011;66299;47.514;19.218;2023-07-24T08:06:06;13.80;;;6.88;;
68188;SDS011;66299;47.514;19.218;2023-07-24T08:11:12;14.20;;;7.25;;
68188;SDS011;66299;47.514;19.218;2023-07-24T08:16:13;16.52;;;6.85;;
68188;SDS011;66299;47.514;19.218;2023-07-24T08:18:47;13.40;;;6.80;;
68188;SDS011;66299;47.514;19.218;2023-07-24T08:21:16;14.17;;;6.83;;
68188;SDS011;66299;47.514;19.218;2023-07-24T08:23:46;15.75;;;6.55;;
68188;SDS011;66299;47.514;19.218;2023-07-24T08:26:14;15.67;;;7.03;;
68188;SDS011;66299;47.514;19.218;2023-07-24T08:28:45;14.32;;;6.80;;
68188;SDS011;66299;47.514;19.218;2023-07-24T08:31:13;13.50;;;6.50;;
68188;SDS011;66299;47.514;19.218;2023-07-24T08:33:45;18.95;;;6.80;;
68188;SDS011;66299;47.514;19.218;2023-07-24T08:36:13;13.83;;;6.57;;
68188;SDS011;66299;47.514;19.218;2023-07-24T08:38:42;18.38;;;7.28;;
68188;SDS011;66299;47.514;19.218;2023-07-24T08:41:16;15.60;;;7.28;;
68188;SDS011;66299;47.514;19.218;2023-07-24T08:43:48;15.38;;;6.97;;
68188;SDS011;66299;47.514;19.218;2023-07-24T08:46:22;15.48;;;7.40;;
68188;SDS011;66299;47.514;19.218;2023-07-24T08:48:55;22.50;;;7.60;;
68188;SDS011;66299;47.514;19.218;2023-07-24T08:54:00;19.13;;;7.57;;
68188;SDS011;66299;47.514;19.218;2023-07-24T08:56:32;22.00;;;7.78;;
68188;SDS011;66299;47.514;19.218;2023-07-24T08:59:01;26.27;;;7.97;;
68188;SDS011;66299;47.514;19.218;2023-07-24T09:01:30;21.55;;;7.90;;
68188;SDS011;66299;47.514;19.218;2023-07-24T09:04:01;20.98;;;7.65;;
68188;SDS011;66299;47.514;19.218;2023-07-24T09:06:31;17.67;;;7.30;;
68188;SDS011;66299;47.514;19.218;2023-07-24T09:09:02;18.25;;;7.78;;
68188;SDS011;66299;47.514;19.218;2023-07-24T09:11:51;18.65;;;7.35;;
68188;SDS011;66299;47.514;19.218;2023-07-24T09:14:26;18.40;;;7.40;;
68188;SDS011;66299;47.514;19.218;2023-07-24T09:17:03;17.83;;;7.50;;
68188;SDS011;66299;47.514;19.218;2023-07-24T09:19:35;17.08;;;7.97;;
68188;SDS011;66299;47.514;19.218;2023-07-24T09:22:10;25.90;;;7.80;;
68188;SDS011;66299;47.514;19.218;2023-07-24T09:24:56;17.08;;;7.30;;
68188;SDS011;66299;47.514;19.218;2023-07-24T09:27:28;16.35;;;7.28;;
68188;SDS011;66299;47.514;19.218;2023-07-24T09:30:11;28.38;;;8.05;;
68188;SDS011;66299;47.514;19.218;2023-07-24T09:32:51;17.88;;;7.32;;
68188;SDS011;66299;47.514;19.218;2023-07-24T09:35:21;22.55;;;7.63;;
68188;SDS011;66299;47.514;19.218;2023-07-24T09:38:01;23.20;;;7.68;;
68188;SDS011;66299;47.514;19.218;2023-07-24T09:40:38;19.38;;;7.32;;
68188;SDS011;66299;47.514;19.218;2023-07-24T09:43:17;20.60;;;7.20;;
68188;SDS011;66299;47.514;19.218;2023-07-24T09:46:06;35.35;;;7.70;;
68188;SDS011;66299;47.514;19.218;2023-07-24T09:48:38;17.55;;;7.63;;
68188;SDS011;66299;47.514;19.218;2023-07-24T09:51:30;22.25;;;7.78;;
68188;SDS011;66299;47.514;19.218;2023-07-24T09:54:05;35.65;;;8.02;;
68188;SDS011;66299;47.514;19.218;2023-07-24T09:56:40;39.83;;;8.50;;
68188;SDS011;66299;47.514;19.218;2023-07-24T09:59:23;31.50;;;7.78;;
68188;SDS011;66299;47.514;19.218;2023-07-24T10:01:59;19.10;;;7.85;;
68188;SDS011;66299;47.514;19.218;2023-07-24T10:04:28;22.73;;;8.05;;
68188;SDS011;66299;47.514;19.218;2023-07-24T10:07:01;16.10;;;8.52;;
68188;SDS011;66299;47.514;19.218;2023-07-24T10:09:31;16.73;;;8.00;;
68188;SDS011;66299;47.514;19.218;2023-07-24T10:12:03;18.75;;;7.97;;
68188;SDS011;66299;47.514;19.218;2023-07-24T10:14:36;16.33;;;7.90;;
68188;SDS011;66299;47.514;19.218;2023-07-24T10:17:08;19.95;;;8.50;;
68188;SDS011;66299;47.514;19.218;2023-07-24T10:19:38;18.77;;;8.32;;
68188;SDS011;66299;47.514;19.218;2023-07-24T10:22:09;18.08;;;7.97;;
68188;SDS011;66299;47.514;19.218;2023-07-24T10:24:48;21.10;;;8.05;;
68188;SDS011;66299;47.514;19.218;2023-07-24T10:27:16;18.77;;;7.90;;
68188;SDS011;66299;47.514;19.218;2023-07-24T10:30:01;19.48;;;8.27;;
68188;SDS011;66299;47.514;19.218;2023-07-24T10:32:52;19.17;;;8.57;;
68188;SDS011;66299;47.514;19.218;2023-07-24T10:35:22;24.83;;;8.82;;
68188;SDS011;66299;47.514;19.218;2023-07-24T10:37:59;23.70;;;7.95;;
68188;SDS011;66299;47.514;19.218;2023-07-24T10:40:31;19.48;;;8.77;;
68188;SDS011;66299;47.514;19.218;2023-07-24T10:43:08;22.83;;;8.70;;
68188;SDS011;66299;47.514;19.218;2023-07-24T10:45:45;23.10;;;8.82;;
68188;SDS011;66299;47.514;19.218;2023-07-24T10:48:19;18.38;;;9.45;;
68188;SDS011;66299;47.514;19.218;2023-07-24T10:50:50;38.83;;;10.70;;
68188;SDS011;66299;47.514;19.218;2023-07-24T10:53:23;19.15;;;8.57;;
68188;SDS011;66299;47.514;19.218;2023-07-24T10:55:59;23.02;;;9.73;;
68188;SDS011;66299;47.514;19.218;2023-07-24T10:58:31;17.70;;;8.82;;
68188;SDS011;66299;47.514;19.218;2023-07-24T11:01:05;17.42;;;9.05;;
68188;SDS011;66299;47.514;19.218;2023-07-24T11:03:40;19.13;;;8.55;;
68188;SDS011;66299;47.514;19.218;2023-07-24T11:06:14;21.67;;;8.52;;
68188;SDS011;66299;47.514;19.218;2023-07-24T11:08:53;21.70;;;8.18;;
68188;SDS011;66299;47.514;19.218;2023-07-24T11:11:30;17.88;;;8.40;;
68188;SDS011;66299;47.514;19.218;2023-07-24T11:14:01;19.25;;;8.35;;
68188;SDS011;66299;47.514;19.218;2023-07-24T11:19:07;20.35;;;8.07;;
68188;SDS011;66299;47.514;19.218;2023-07-24T11:21:41;17.27;;;8.05;;
68188;SDS011;66299;47.514;19.218;2023-07-24T11:24:14;16.67;;;8.15;;
68188;SDS011;66299;47.514;19.218;2023-07-24T11:27:07;19.92;;;8.00;;
68188;SDS011;66299;47.514;19.218;2023-07-24T11:29:38;17.67;;;8.50;;
68188;SDS011;66299;47.514;19.218;2023-07-24T11:32:21;21.65;;;8.15;;
68188;SDS011;66299;47.514;19.218;2023-07-24T11:34:54;24.33;;;8.45;;
68188;SDS011;66299;47.514;19.218;2023-07-24T11:37:27;25.25;;;8.00;;
68188;SDS011;66299;47.514;19.218;2023-07-24T11:39:58;18.15;;;7.63;;
68188;SDS011;66299;47.514;19.218;2023-07-24T11:42:31;20.95;;;8.02;;
68188;SDS011;66299;47.514;19.218;2023-07-24T11:45:01;20.73;;;8.30;;
68188;SDS011;66299;47.514;19.218;2023-07-24T11:47:34;17.77;;;7.85;;
68188;SDS011;66299;47.514;19.218;2023-07-24T11:52:43;29.40;;;7.80;;
68188;SDS011;66299;47.514;19.218;2023-07-24T11:55:14;18.98;;;7.45;;
68188;SDS011;66299;47.514;19.218;2023-07-24T11:57:55;18.65;;;8.05;;
68188;SDS011;66299;47.514;19.218;2023-07-24T12:00:26;17.10;;;7.85;;
68188;SDS011;66299;47.514;19.218;2023-07-24T12:03:05;21.73;;;8.00;;
68188;SDS011;66299;47.514;19.218;2023-07-24T12:05:41;24.42;;;7.75;;
68188;SDS011;66299;47.514;19.218;2023-07-24T12:08:15;17.50;;;8.40;;
68188;SDS011;66299;47.514;19.218;2023-07-24T12:10:46;16.40;;;7.90;;
68188;SDS011;66299;47.514;19.218;2023-07-24T12:13:16;17.65;;;7.60;;
68188;SDS011;66299;47.514;19.218;2023-07-24T12:15:49;21.65;;;7.88;;
68188;SDS011;66299;47.514;19.218;2023-07-24T12:18:22;14.60;;;7.22;;
68188;SDS011;66299;47.514;19.218;2023-07-24T12:20:52;20.17;;;7.65;;
68188;SDS011;66299;47.514;19.218;2023-07-24T12:23:21;18.40;;;7.90;;
68188;SDS011;66299;47.514;19.218;2023-07-24T12:25:49;17.95;;;7.38;;
68188;SDS011;66299;47.514;19.218;2023-07-24T12:28:18;17.38;;;7.55;;
68188;SDS011;66299;47.514;19.218;2023-07-24T12:30:48;15.73;;;7.07;;
68188;SDS011;66299;47.514;19.218;2023-07-24T12:33:19;18.38;;;7.60;;
68188;SDS011;66299;47.514;19.218;2023-07-24T12:35:51;19.83;;;7.40;;
68188;SDS011;66299;47.514;19.218;2023-07-24T12:38:22;19.98;;;7.03;;
68188;SDS011;66299;47.514;19.218;2023-07-24T12:40:52;18.70;;;7.18;;
68188;SDS011;66299;47.514;19.218;2023-07-24T12:43:23;17.13;;;7.35;;
68188;SDS011;66299;47.514;19.218;2023-07-24T12:45:51;19.00;;;7.13;;
68188;SDS011;66299;47.514;19.218;2023-07-24T12:48:26;21.23;;;7.13;;
68188;SDS011;66299;47.514;19.218;2023-07-24T12:50:58;18.95;;;7.20;;
68188;SDS011;66299;47.514;19.218;2023-07-24T12:53:29;14.90;;;6.43;;
68188;SDS011;66299;47.514;19.218;2023-07-24T12:56:09;20.65;;;6.93;;
68188;SDS011;66299;47.514;19.218;2023-07-24T12:58:40;18.02;;;6.90;;
68188;SDS011;66299;47.514;19.218;2023-07-24T13:01:08;17.98;;;7.10;;
68188;SDS011;66299;47.514;19.218;2023-07-24T13:03:40;18.33;;;6.78;;
68188;SDS011;66299;47.514;19.218;2023-07-24T13:06:11;16.13;;;7.05;;
68188;SDS011;66299;47.514;19.218;2023-07-24T13:08:40;14.57;;;7.13;;
68188;SDS011;66299;47.514;19.218;2023-07-24T13:11:12;18.48;;;6.88;;
68188;SDS011;66299;47.514;19.218;2023-07-24T13:13:41;15.43;;;7.18;;
68188;SDS011;66299;47.514;19.218;2023-07-24T13:16:14;13.85;;;6.72;;
68188;SDS011;66299;47.514;19.218;2023-07-24T13:18:51;18.75;;;6.95;;
68188;SDS011;66299;47.514;19.218;2023-07-24T13:21:20;15.93;;;6.75;;
68188;SDS011;66299;47.514;19.218;2023-07-24T13:23:50;19.20;;;6.43;;
68188;SDS011;66299;47.514;19.218;2023-07-24T13:26:21;21.75;;;6.80;;
68188;SDS011;66299;47.514;19.218;2023-07-24T13:28:50;16.13;;;6.53;;
68188;SDS011;66299;47.514;19.218;2023-07-24T13:31:21;17.00;;;6.40;;
68188;SDS011;66299;47.514;19.218;2023-07-24T13:33:53;19.02;;;6.53;;
68188;SDS011;66299;47.514;19.218;2023-07-24T13:36:24;15.35;;;6.88;;
68188;SDS011;66299;47.514;19.218;2023-07-24T13:38:55;16.92;;;6.82;;
68188;SDS011;66299;47.514;19.218;2023-07-24T13:41:24;14.90;;;6.82;;
68188;SDS011;66299;47.514;19.218;2023-07-24T13:43:55;18.83;;;6.70;;
68188;SDS011;66299;47.514;19.218;2023-07-24T13:46:26;18.77;;;7.70;;
68188;SDS011;66299;47.514;19.218;2023-07-24T13:48:55;24.70;;;7.18;;
68188;SDS011;66299;47.514;19.218;2023-07-24T13:51:27;25.35;;;7.45;;
68188;SDS011;66299;47.514;19.218;2023-07-24T13:53:56;18.83;;;7.47;;
68188;SDS011;66299;47.514;19.218;2023-07-24T13:56:29;16.80;;;7.47;;
68188;SDS011;66299;47.514;19.218;2023-07-24T13:59:02;16.33;;;8.27;;
68188;SDS011;66299;47.514;19.218;2023-07-24T14:01:33;17.67;;;7.97;;
68188;SDS011;66299;47.514;19.218;2023-07-24T14:04:06;31.55;;;8.20;;
68188;SDS011;66299;47.514;19.218;2023-07-24T14:06:35;18.17;;;8.95;;
68188;SDS011;66299;47.514;19.218;2023-07-24T14:09:04;20.75;;;8.40;;
68188;SDS011;66299;47.514;19.218;2023-07-24T14:11:34;22.00;;;8.50;;
68188;SDS011;66299;47.514;19.218;2023-07-24T14:14:09;29.35;;;8.50;;
68188;SDS011;66299;47.514;19.218;2023-07-24T14:16:38;23.77;;;9.25;;
68188;SDS011;66299;47.514;19.218;2023-07-24T14:19:10;23.92;;;9.02;;
68188;SDS011;66299;47.514;19.218;2023-07-24T14:21:40;24.55;;;10.18;;
68188;SDS011;66299;47.514;19.218;2023-07-24T14:24:08;21.45;;;9.88;;
68188;SDS011;66299;47.514;19.218;2023-07-24T14:26:37;18.02;;;9.05;;
68188;SDS011;66299;47.514;19.218;2023-07-24T14:29:10;18.23;;;9.98;;
68188;SDS011;66299;47.514;19.218;2023-07-24T14:31:42;20.95;;;10.20;;
68188;SDS011;66299;47.514;19.218;2023-07-24T14:36:41;22.13;;;9.77;;
68188;SDS011;66299;47.514;19.218;2023-07-24T14:39:11;20.50;;;9.80;;
68188;SDS011;66299;47.514;19.218;2023-07-24T14:41:42;27.23;;;9.90;;
68188;SDS011;66299;47.514;19.218;2023-07-24T14:44:11;21.10;;;9.35;;
68188;SDS011;66299;47.514;19.218;2023-07-24T14:46:40;22.23;;;10.00;;
68188;SDS011;66299;47.514;19.218;2023-07-24T14:49:13;22.15;;;10.23;;
68188;SDS011;66299;47.514;19.218;2023-07-24T14:51:42;24.35;;;9.30;;
68188;SDS011;66299;47.514;19.218;2023-07-24T14:54:15;25.77;;;9.77;;
68188;SDS011;66299;47.514;19.218;2023-07-24T14:56:45;28.70;;;9.90;;
68188;SDS011;66299;47.514;19.218;2023-07-24T14:59:27;25.17;;;9.50;;
68188;SDS011;66299;47.514;19.218;2023-07-24T15:01:59;18.80;;;9.95;;
68188;SDS011;66299;47.514;19.218;2023-07-24T15:04:32;25.10;;;9.75;;
68188;SDS011;66299;47.514;19.218;2023-07-24T15:07:01;20.90;;;9.82;;
68188;SDS011;66299;47.514;19.218;2023-07-24T15:09:31;20.88;;;9.48;;